createdAt,value
2022-12-04T00:00:22.480Z,97755.00
2022-12-04T00:02:57.473Z,97745.00
2022-12-04T00:05:32.375Z,97742.00
2022-12-04T00:08:07.309Z,97748.00
2022-12-04T00:10:43.891Z,97734.00
2022-12-04T00:13:19.270Z,97743.00
2022-12-04T00:15:54.407Z,97744.00
2022-12-04T00:18:29.339Z,97743.00
2022-12-04T00:21:10.652Z,97740.00
2022-12-04T00:23:46.801Z,97739.00
2022-12-04T00:26:27.839Z,97735.00
2022-12-04T00:29:03.701Z,97738.00
2022-12-04T00:31:40.363Z,97724.00
2022-12-04T00:34:15.269Z,97728.00
2022-12-04T00:36:50.124Z,97722.00
2022-12-04T00:39:25.023Z,97729.00
2022-12-04T00:41:59.906Z,97731.00
2022-12-04T00:44:34.807Z,97719.00
2022-12-04T00:47:09.719Z,97725.00
2022-12-04T00:49:44.581Z,97721.00
2022-12-04T00:52:19.469Z,97730.00
2022-12-04T00:54:54.932Z,97731.00
2022-12-04T00:57:29.816Z,97731.00
2022-12-04T01:00:08.411Z,97719.00
2022-12-04T01:02:43.344Z,97715.00
2022-12-04T01:05:18.411Z,97721.00
2022-12-04T01:07:54.433Z,97717.00
2022-12-04T01:10:29.375Z,97725.00
2022-12-04T01:13:04.269Z,97716.00
2022-12-04T01:15:47.344Z,97720.00
2022-12-04T01:18:22.235Z,97715.00
2022-12-04T01:20:57.126Z,97713.00
2022-12-04T01:23:32.142Z,97703.00
2022-12-04T01:26:07.248Z,97710.00
2022-12-04T01:28:42.497Z,97716.00
2022-12-04T01:31:20.764Z,97715.00
2022-12-04T01:33:55.688Z,97711.00
2022-12-04T01:36:30.662Z,97713.00
2022-12-04T01:39:05.766Z,97706.00
2022-12-04T01:41:40.905Z,97703.00
2022-12-04T01:44:26.412Z,97710.00
2022-12-04T01:47:01.735Z,97708.00
2022-12-04T01:49:48.814Z,97705.00
2022-12-04T01:52:25.872Z,97705.00
2022-12-04T01:55:01.808Z,97705.00
2022-12-04T01:57:36.769Z,97704.00
2022-12-04T02:00:16.313Z,97715.00
2022-12-04T02:02:51.376Z,97705.00
2022-12-04T02:05:26.355Z,97715.00
2022-12-04T02:08:05.577Z,97710.00
2022-12-04T02:10:57.035Z,97718.00
2022-12-04T02:13:57.910Z,97713.00
2022-12-04T02:16:46.504Z,97723.00
2022-12-04T02:20:09.684Z,97709.00
2022-12-04T02:23:25.585Z,97700.00
2022-12-04T02:26:09.227Z,97696.00
2022-12-04T02:28:54.342Z,97693.00
2022-12-04T02:31:44.596Z,97684.00
2022-12-04T02:34:49.421Z,97680.00
2022-12-04T02:37:37.267Z,97686.00
2022-12-04T02:40:30.205Z,97696.00
2022-12-04T02:43:19.295Z,97691.00
2022-12-04T02:46:09.428Z,97699.00
2022-12-04T02:51:41.679Z,97685.00
2022-12-04T02:54:27.572Z,97694.00
2022-12-04T02:57:06.728Z,97685.00
2022-12-04T02:59:44.235Z,97691.00
2022-12-04T03:02:32.133Z,97686.00
2022-12-04T03:05:15.327Z,97678.00
2022-12-04T03:07:58.167Z,97671.00
2022-12-04T03:10:39.047Z,97681.00
2022-12-04T03:13:23.820Z,97672.00
2022-12-04T03:16:08.713Z,97680.00
2022-12-04T03:19:25.015Z,97670.00
2022-12-04T03:22:05.326Z,97665.00
2022-12-04T03:24:46.981Z,97669.00
2022-12-04T03:28:03.823Z,97675.00
2022-12-04T03:30:50.425Z,97667.00
2022-12-04T03:33:43.311Z,97661.00
2022-12-04T03:36:32.579Z,97655.00
2022-12-04T03:39:56.038Z,97656.00
2022-12-04T03:43:04.549Z,97656.00
2022-12-04T03:45:49.804Z,97648.00
2022-12-04T03:48:45.242Z,97641.00
2022-12-04T03:51:26.116Z,97644.00
2022-12-04T03:54:22.867Z,97649.00
2022-12-04T03:57:04.744Z,97655.00
2022-12-04T03:59:53.895Z,97654.00
2022-12-04T04:02:37.894Z,97659.00
2022-12-04T04:05:14.088Z,97651.00
2022-12-04T04:08:18.114Z,97652.00
2022-12-04T04:11:00.622Z,97655.00
2022-12-04T04:14:12.345Z,97666.00
2022-12-04T04:17:22.198Z,97665.00
2022-12-04T04:20:24.036Z,97679.00
2022-12-04T04:23:20.617Z,97684.00
2022-12-04T04:25:59.673Z,97684.00
2022-12-04T04:28:36.173Z,97688.00
2022-12-04T04:31:39.679Z,97690.00
2022-12-04T04:34:52.455Z,97686.00
2022-12-04T04:38:00.371Z,97690.00
2022-12-04T04:41:04.944Z,97689.00
2022-12-04T04:43:59.850Z,97681.00
2022-12-04T04:46:40.189Z,97682.00
2022-12-04T04:49:16.128Z,97670.00
2022-12-04T04:51:51.313Z,97675.00
2022-12-04T04:54:27.123Z,97674.00
2022-12-04T04:57:02.077Z,97675.00
2022-12-04T04:59:36.987Z,97674.00
2022-12-04T05:02:11.944Z,97675.00
2022-12-04T05:04:46.848Z,97687.00
2022-12-04T05:07:21.827Z,97691.00
2022-12-04T05:09:57.005Z,97687.00
2022-12-04T05:12:32.082Z,97690.00
2022-12-04T05:15:07.883Z,97687.00
2022-12-04T05:17:42.867Z,97687.00
2022-12-04T05:20:17.812Z,97684.00
2022-12-04T05:22:52.713Z,97673.00
2022-12-04T05:25:27.977Z,97684.00
2022-12-04T05:28:02.963Z,97683.00
2022-12-04T05:30:37.987Z,97681.00
2022-12-04T05:33:12.895Z,97676.00
2022-12-04T05:36:01.123Z,97670.00
2022-12-04T05:38:36.890Z,97681.00
2022-12-04T05:41:11.856Z,97673.00
2022-12-04T05:43:46.760Z,97675.00
2022-12-04T05:46:21.702Z,97674.00
2022-12-04T05:48:57.652Z,97680.00
2022-12-04T05:51:32.593Z,97673.00
2022-12-04T05:54:07.486Z,97667.00
2022-12-04T05:56:42.418Z,97666.00
2022-12-04T05:59:17.964Z,97671.00
2022-12-04T06:01:53.071Z,97669.00
2022-12-04T06:04:28.125Z,97680.00
2022-12-04T06:07:03.104Z,97682.00
2022-12-04T06:09:38.229Z,97684.00
2022-12-04T06:12:13.106Z,97681.00
2022-12-04T06:14:47.970Z,97683.00
2022-12-04T06:17:23.137Z,97680.00
2022-12-04T06:19:58.835Z,97678.00
2022-12-04T06:22:34.017Z,97679.00
2022-12-04T06:25:09.975Z,97678.00
2022-12-04T06:27:44.874Z,97678.00
2022-12-04T06:30:20.221Z,97677.00
2022-12-04T06:32:55.163Z,97679.00
2022-12-04T06:35:30.093Z,97676.00
2022-12-04T06:38:05.085Z,97673.00
2022-12-04T06:41:21.627Z,97675.00
2022-12-04T06:43:57.204Z,97678.00
2022-12-04T06:48:00.068Z,97664.00
2022-12-04T06:49:53.987Z,97678.00
2022-12-04T06:52:29.354Z,97679.00
2022-12-04T06:55:04.902Z,97687.00
2022-12-04T06:57:39.917Z,97678.00
2022-12-04T07:00:15.798Z,97682.00
2022-12-04T07:02:50.942Z,97683.00
2022-12-04T07:05:27.781Z,97687.00
2022-12-04T07:08:02.790Z,97690.00
2022-12-04T07:10:38.396Z,97684.00
2022-12-04T07:13:13.355Z,97688.00
2022-12-04T07:15:49.314Z,97690.00
2022-12-04T07:18:24.249Z,97684.00
2022-12-04T07:21:00.134Z,97690.00
2022-12-04T07:23:36.009Z,97693.00
2022-12-04T07:26:13.542Z,97686.00
2022-12-04T07:28:48.669Z,97685.00
2022-12-04T07:31:25.345Z,97675.00
2022-12-04T07:34:00.372Z,97678.00
2022-12-04T07:36:35.379Z,97680.00
2022-12-04T07:39:10.393Z,97683.00
2022-12-04T07:41:45.414Z,97685.00
2022-12-04T07:44:22.466Z,97687.00
2022-12-04T07:46:57.564Z,97683.00
2022-12-04T07:49:32.658Z,97675.00
2022-12-04T07:52:07.854Z,97682.00
2022-12-04T07:54:42.762Z,97675.00
2022-12-04T07:57:17.663Z,97690.00
2022-12-04T07:59:52.758Z,97695.00
2022-12-04T08:02:27.874Z,97693.00
2022-12-04T08:05:02.995Z,97704.00
2022-12-04T08:07:38.113Z,97703.00
2022-12-04T08:10:13.408Z,97701.00
2022-12-04T08:12:48.388Z,97698.00
2022-12-04T08:15:23.356Z,97685.00
2022-12-04T08:17:58.240Z,97700.00
2022-12-04T08:20:33.182Z,97693.00
2022-12-04T08:23:08.150Z,97696.00
2022-12-04T08:25:43.092Z,97701.00
2022-12-04T08:28:18.130Z,97687.00
2022-12-04T08:30:53.051Z,97694.00
2022-12-04T08:33:28.924Z,97697.00
2022-12-04T08:36:08.721Z,97701.00
2022-12-04T08:38:44.071Z,97695.00
2022-12-04T08:41:23.914Z,97700.00
2022-12-04T08:43:59.625Z,97702.00
2022-12-04T08:46:34.659Z,97718.00
2022-12-04T08:49:09.664Z,97720.00
2022-12-04T08:51:44.555Z,97718.00
2022-12-04T08:54:19.512Z,97713.00
2022-12-04T08:56:54.390Z,97721.00
2022-12-04T08:59:29.304Z,97727.00
2022-12-04T09:02:04.405Z,97728.00
2022-12-04T09:04:39.654Z,97731.00
2022-12-04T09:07:14.635Z,97725.00
2022-12-04T09:09:49.513Z,97733.00
2022-12-04T09:12:24.410Z,97734.00
2022-12-04T09:14:59.346Z,97744.00
2022-12-04T09:17:36.513Z,97734.00
2022-12-04T09:20:11.883Z,97737.00
2022-12-04T09:23:03.557Z,97727.00
2022-12-04T09:25:39.467Z,97727.00
2022-12-04T09:28:14.357Z,97735.00
2022-12-04T09:31:04.114Z,97722.00
2022-12-04T09:33:39.090Z,97710.00
2022-12-04T09:36:16.158Z,97708.00
2022-12-04T09:38:53.681Z,97709.00
2022-12-04T09:41:49.712Z,97705.00
2022-12-04T09:44:28.199Z,97696.00
2022-12-04T09:47:27.191Z,97702.00
2022-12-04T09:50:17.226Z,97682.00
2022-12-04T09:53:02.898Z,97674.00
2022-12-04T09:55:50.748Z,97662.00
2022-12-04T09:58:45.497Z,97660.00
2022-12-04T10:01:39.593Z,97658.00
2022-12-04T10:04:15.579Z,97648.00
2022-12-04T10:07:01.125Z,97649.00
2022-12-04T10:09:56.399Z,97647.00
2022-12-04T10:12:52.308Z,97649.00
2022-12-04T10:15:58.809Z,97641.00
2022-12-04T10:18:51.755Z,97641.00
2022-12-04T10:22:15.752Z,97638.00
2022-12-04T10:24:56.829Z,97630.00
2022-12-04T10:27:49.681Z,97633.00
2022-12-04T10:30:29.222Z,97631.00
2022-12-04T10:33:41.744Z,97636.00
2022-12-04T10:36:21.114Z,97635.00
2022-12-04T10:39:04.745Z,97636.00
2022-12-04T10:42:13.166Z,97642.00
2022-12-04T10:44:48.248Z,97648.00
2022-12-04T10:47:24.785Z,97664.00
2022-12-04T10:50:05.290Z,97661.00
2022-12-04T10:52:40.245Z,97659.00
2022-12-04T10:55:15.361Z,97654.00
2022-12-04T10:57:50.498Z,97661.00
2022-12-04T11:00:27.594Z,97650.00
2022-12-04T11:03:10.053Z,97652.00
2022-12-04T11:05:57.497Z,97645.00
2022-12-04T11:08:44.947Z,97642.00
2022-12-04T11:11:31.006Z,97640.00
2022-12-04T11:14:19.429Z,97628.00
2022-12-04T11:17:05.553Z,97642.00
2022-12-04T11:19:40.478Z,97634.00
2022-12-04T11:22:19.031Z,97642.00
2022-12-04T11:24:59.067Z,97630.00
2022-12-04T11:27:35.048Z,97635.00
2022-12-04T11:30:19.166Z,97640.00
2022-12-04T11:32:55.138Z,97631.00
2022-12-04T11:35:31.538Z,97626.00
2022-12-04T11:38:16.631Z,97620.00
2022-12-04T11:40:56.208Z,97617.00
2022-12-04T11:43:33.710Z,97630.00
2022-12-04T11:46:23.828Z,97646.00
2022-12-04T11:48:59.197Z,97646.00
2022-12-04T11:52:04.029Z,97650.00
2022-12-04T11:54:58.999Z,97643.00
2022-12-04T11:58:12.920Z,97642.00
2022-12-04T12:01:16.187Z,97642.00
2022-12-04T12:04:15.568Z,97626.00
2022-12-04T12:07:20.348Z,97625.00
2022-12-04T12:10:23.383Z,97615.00
2022-12-04T12:13:32.186Z,97616.00
2022-12-04T12:16:25.158Z,97608.00
2022-12-04T12:19:39.467Z,97595.00
2022-12-04T12:22:43.436Z,97594.00
2022-12-04T12:25:31.339Z,97583.00
2022-12-04T12:28:44.980Z,97604.00
2022-12-04T12:32:03.635Z,97595.00
2022-12-04T12:34:42.711Z,97586.00
2022-12-04T12:37:40.024Z,97573.00
2022-12-04T12:40:35.065Z,97581.00
2022-12-04T12:43:30.256Z,97593.00
2022-12-04T12:46:44.125Z,97602.00
2022-12-04T12:49:36.797Z,97595.00
2022-12-04T12:52:29.705Z,97589.00
2022-12-04T12:55:14.289Z,97587.00
2022-12-04T12:58:19.153Z,97581.00
2022-12-04T13:01:20.897Z,97583.00
2022-12-04T13:04:02.493Z,97574.00
2022-12-04T13:06:42.047Z,97579.00
2022-12-04T13:09:21.778Z,97581.00
2022-12-04T13:12:08.465Z,97576.00
2022-12-04T13:14:48.630Z,97577.00
2022-12-04T13:17:38.488Z,97573.00
2022-12-04T13:20:31.989Z,97577.00
2022-12-04T13:23:38.114Z,97582.00
2022-12-04T13:26:49.426Z,97596.00
2022-12-04T13:29:49.116Z,97599.00
2022-12-04T13:33:15.896Z,97608.00
2022-12-04T13:36:30.687Z,97607.00
2022-12-04T13:40:02.433Z,97609.00
2022-12-04T13:42:37.503Z,97613.00
2022-12-04T13:45:28.812Z,97601.00
2022-12-04T13:48:04.402Z,97584.00
2022-12-04T13:50:41.027Z,97578.00
2022-12-04T13:53:37.611Z,97597.00
2022-12-04T13:56:28.453Z,97603.00
2022-12-04T13:59:06.010Z,97596.00
2022-12-04T14:01:47.095Z,97595.00
2022-12-04T14:04:46.478Z,97598.00
2022-12-04T14:07:34.069Z,97591.00
2022-12-04T14:10:15.221Z,97589.00
2022-12-04T14:13:21.580Z,97589.00
2022-12-04T14:16:41.797Z,97567.00
2022-12-04T14:19:40.833Z,97564.00
2022-12-04T14:22:34.549Z,97561.00
2022-12-04T14:25:12.378Z,97572.00
2022-12-04T14:27:51.981Z,97579.00
2022-12-04T14:30:40.178Z,97584.00
2022-12-04T14:33:22.561Z,97582.00
2022-12-04T14:36:15.283Z,97592.00
2022-12-04T14:39:06.010Z,97595.00
2022-12-04T14:41:41.928Z,97601.00
2022-12-04T14:44:30.820Z,97595.00
2022-12-04T14:47:36.518Z,97602.00
2022-12-04T14:50:27.187Z,97600.00
2022-12-04T14:53:35.037Z,97589.00
2022-12-04T14:56:26.292Z,97584.00
2022-12-04T14:59:08.982Z,97592.00
2022-12-04T15:01:47.795Z,97587.00
2022-12-04T15:04:29.502Z,97597.00
2022-12-04T15:07:05.079Z,97593.00
2022-12-04T15:10:19.589Z,97595.00
2022-12-04T15:12:55.276Z,97606.00
2022-12-04T15:15:30.605Z,97611.00
2022-12-04T15:18:14.740Z,97615.00
2022-12-04T15:20:49.596Z,97625.00
2022-12-04T15:23:33.702Z,97625.00
2022-12-04T15:26:15.352Z,97616.00
2022-12-04T15:29:01.700Z,97631.00
2022-12-04T15:31:49.186Z,97630.00
2022-12-04T15:34:42.442Z,97631.00
2022-12-04T15:37:28.824Z,97627.00
2022-12-04T15:40:09.161Z,97622.00
2022-12-04T15:42:44.083Z,97612.00
2022-12-04T15:45:18.923Z,97617.00
2022-12-04T15:47:54.577Z,97608.00
2022-12-04T15:50:31.535Z,97614.00
2022-12-04T15:53:12.671Z,97613.00
2022-12-04T15:56:04.916Z,97616.00
2022-12-04T15:58:40.751Z,97597.00
2022-12-04T16:01:22.279Z,97598.00
2022-12-04T16:03:57.356Z,97600.00
2022-12-04T16:06:34.986Z,97599.00
2022-12-04T16:09:26.908Z,97605.00
2022-12-04T16:12:22.738Z,97610.00
2022-12-04T16:14:58.231Z,97604.00
2022-12-04T16:17:35.070Z,97598.00
2022-12-04T16:20:11.077Z,97601.00
2022-12-04T16:22:46.863Z,97593.00
2022-12-04T16:25:21.732Z,97591.00
2022-12-04T16:27:56.981Z,97594.00
2022-12-04T16:30:34.030Z,97582.00
2022-12-04T16:33:14.343Z,97586.00
2022-12-04T16:35:49.562Z,97584.00
2022-12-04T16:38:24.527Z,97580.00
2022-12-04T16:40:59.421Z,97577.00
2022-12-04T16:43:34.409Z,97578.00
2022-12-04T16:46:16.068Z,97583.00
2022-12-04T16:48:51.636Z,97582.00
2022-12-04T16:51:27.356Z,97583.00
2022-12-04T16:54:02.299Z,97577.00
2022-12-04T16:56:37.174Z,97573.00
2022-12-04T16:59:12.689Z,97551.00
2022-12-04T17:01:49.435Z,97557.00
2022-12-04T17:04:24.516Z,97550.00
2022-12-04T17:06:59.488Z,97564.00
2022-12-04T17:09:34.461Z,97563.00
2022-12-04T17:12:09.360Z,97575.00
2022-12-04T17:14:44.262Z,97577.00
2022-12-04T17:17:19.319Z,97576.00
2022-12-04T17:19:54.219Z,97594.00
2022-12-04T17:22:31.073Z,97599.00
2022-12-04T17:25:07.351Z,97597.00
2022-12-04T17:27:42.364Z,97602.00
2022-12-04T17:30:17.752Z,97593.00
2022-12-04T17:32:52.734Z,97606.00
2022-12-04T17:35:27.730Z,97609.00
2022-12-04T17:38:06.141Z,97618.00
2022-12-04T17:40:41.463Z,97621.00
2022-12-04T17:43:21.780Z,97628.00
2022-12-04T17:45:57.770Z,97625.00
2022-12-04T17:48:32.668Z,97623.00
2022-12-04T17:51:12.986Z,97618.00
2022-12-04T17:53:48.568Z,97612.00
2022-12-04T17:56:24.457Z,97613.00
2022-12-04T17:58:59.706Z,97610.00
2022-12-04T18:01:34.977Z,97618.00
2022-12-04T18:04:09.974Z,97623.00
2022-12-04T18:06:46.084Z,97618.00
2022-12-04T18:09:20.995Z,97621.00
2022-12-04T18:12:01.461Z,97622.00
2022-12-04T18:14:37.105Z,97618.00
2022-12-04T18:17:12.057Z,97623.00
2022-12-04T18:19:47.614Z,97622.00
2022-12-04T18:22:22.663Z,97618.00
2022-12-04T18:24:57.767Z,97616.00
2022-12-04T18:27:34.868Z,97631.00
2022-12-04T18:30:13.493Z,97629.00
2022-12-04T18:32:48.433Z,97623.00
2022-12-04T18:35:23.362Z,97629.00
2022-12-04T18:37:58.229Z,97632.00
2022-12-04T18:40:35.785Z,97631.00
2022-12-04T18:43:15.246Z,97634.00
2022-12-04T18:46:07.735Z,97629.00
2022-12-04T18:48:44.809Z,97636.00
2022-12-04T18:51:24.677Z,97629.00
2022-12-04T18:54:16.343Z,97634.00
2022-12-04T18:56:51.470Z,97629.00
2022-12-04T18:59:28.874Z,97634.00
2022-12-04T19:02:03.881Z,97646.00
2022-12-04T19:04:38.887Z,97641.00
2022-12-04T19:07:13.795Z,97647.00
2022-12-04T19:10:21.025Z,97655.00
2022-12-04T19:12:43.648Z,97647.00
2022-12-04T19:15:20.255Z,97651.00
2022-12-04T19:17:55.197Z,97658.00
2022-12-04T19:20:30.165Z,97662.00
2022-12-04T19:23:05.074Z,97655.00
2022-12-04T19:25:40.089Z,97668.00
2022-12-04T19:28:15.146Z,97659.00
2022-12-04T19:30:50.267Z,97663.00
2022-12-04T19:33:25.594Z,97678.00
2022-12-04T19:36:06.174Z,97672.00
2022-12-04T19:38:41.500Z,97680.00
2022-12-04T19:41:24.095Z,97687.00
2022-12-04T19:44:00.838Z,97692.00
2022-12-04T19:46:37.383Z,97690.00
2022-12-04T19:49:13.811Z,97686.00
2022-12-04T19:51:49.510Z,97702.00
2022-12-04T19:54:25.602Z,97705.00
2022-12-04T19:57:01.171Z,97712.00
2022-12-04T19:59:39.503Z,97712.00
2022-12-04T20:02:16.865Z,97696.00
2022-12-04T20:04:51.829Z,97702.00
2022-12-04T20:07:26.723Z,97704.00
2022-12-04T20:10:01.680Z,97716.00
2022-12-04T20:12:36.615Z,97704.00
2022-12-04T20:15:11.526Z,97706.00
2022-12-04T20:17:46.438Z,97698.00
2022-12-04T20:20:21.355Z,97700.00
2022-12-04T20:22:56.494Z,97708.00
2022-12-04T20:25:31.428Z,97710.00
2022-12-04T20:28:10.204Z,97703.00
2022-12-04T20:30:49.969Z,97710.00
2022-12-04T20:33:25.023Z,97711.00
2022-12-04T20:36:00.714Z,97711.00
2022-12-04T20:38:36.423Z,97718.00
2022-12-04T20:41:15.818Z,97716.00
2022-12-04T20:43:50.815Z,97714.00
2022-12-04T20:46:32.504Z,97701.00
2022-12-04T20:49:15.804Z,97708.00
2022-12-04T20:51:53.974Z,97700.00
2022-12-04T20:54:28.892Z,97702.00
2022-12-04T20:57:03.890Z,97706.00
2022-12-04T20:59:38.973Z,97707.00
2022-12-04T21:02:14.096Z,97710.00
2022-12-04T21:04:49.059Z,97704.00
2022-12-04T21:07:23.994Z,97717.00
2022-12-04T21:10:00.244Z,97709.00
2022-12-04T21:12:53.749Z,97716.00
2022-12-04T21:15:47.283Z,97713.00
2022-12-04T21:18:22.191Z,97715.00
2022-12-04T21:20:57.567Z,97721.00
2022-12-04T21:23:32.555Z,97717.00
2022-12-04T21:26:07.611Z,97715.00
2022-12-04T21:28:43.071Z,97712.00
2022-12-04T21:31:18.078Z,97713.00
2022-12-04T21:33:53.030Z,97723.00
2022-12-04T21:36:28.712Z,97717.00
2022-12-04T21:39:04.519Z,97716.00
2022-12-04T21:41:58.003Z,97715.00
2022-12-04T21:44:32.903Z,97725.00
2022-12-04T21:47:07.827Z,97732.00
2022-12-04T21:49:42.938Z,97734.00
2022-12-04T21:52:19.055Z,97729.00
2022-12-04T21:54:54.901Z,97737.00
2022-12-04T21:57:29.819Z,97734.00
2022-12-04T22:00:07.123Z,97734.00
2022-12-04T22:02:42.894Z,97738.00
2022-12-04T22:05:17.812Z,97736.00
2022-12-04T22:07:52.763Z,97750.00
2022-12-04T22:10:27.683Z,97737.00
2022-12-04T22:13:02.553Z,97744.00
2022-12-04T22:15:39.847Z,97747.00
2022-12-04T22:18:15.019Z,97743.00
2022-12-04T22:20:49.982Z,97744.00
2022-12-04T22:23:25.121Z,97755.00
2022-12-04T22:26:13.795Z,97753.00
2022-12-04T22:28:49.605Z,97750.00
2022-12-04T22:31:28.432Z,97756.00
2022-12-04T22:34:03.535Z,97770.00
2022-12-04T22:36:38.571Z,97778.00
2022-12-04T22:39:13.662Z,97776.00
2022-12-04T22:41:48.607Z,97772.00
2022-12-04T22:44:23.530Z,97769.00
2022-12-04T22:46:58.436Z,97768.00
2022-12-04T22:49:33.350Z,97766.00
2022-12-04T22:52:08.232Z,97775.00
2022-12-04T22:54:43.106Z,97774.00
2022-12-04T22:57:19.070Z,97777.00
2022-12-04T22:59:54.312Z,97773.00
2022-12-04T23:02:29.266Z,97776.00
2022-12-04T23:05:04.655Z,97773.00
2022-12-04T23:07:39.742Z,97770.00
2022-12-04T23:10:14.737Z,97777.00
2022-12-04T23:12:49.656Z,97776.00
2022-12-04T23:15:24.562Z,97775.00
2022-12-04T23:17:59.506Z,97778.00
2022-12-04T23:20:34.473Z,97782.00
2022-12-04T23:23:09.389Z,97776.00
2022-12-04T23:25:44.251Z,97773.00
2022-12-04T23:28:19.211Z,97783.00
2022-12-04T23:30:54.118Z,97795.00
2022-12-04T23:33:29.546Z,97793.00
2022-12-04T23:36:06.948Z,97801.00
2022-12-04T23:38:43.920Z,97804.00
2022-12-04T23:41:25.619Z,97807.00
2022-12-04T23:44:00.553Z,97827.00
2022-12-04T23:46:35.523Z,97826.00
2022-12-04T23:49:10.482Z,97836.00
2022-12-04T23:51:45.369Z,97836.00
2022-12-04T23:54:20.236Z,97845.00
2022-12-04T23:56:55.119Z,97854.00
2022-12-04T23:59:29.993Z,97846.00
